sensor_id;sensor_type;location;lat;lon;timestamp;P1;durP1;ratioP1;P2;durP2;ratioP2
61696;SDS011;47610;52.252;20.922;2022-12-10T00:04:13;67.50;;;32.50;;
61696;SDS011;47610;52.252;20.922;2022-12-10T00:09:36;70.90;;;31.70;;
61696;SDS011;47610;52.252;20.922;2022-12-10T00:14:58;60.20;;;29.70;;
61696;SDS011;47610;52.252;20.922;2022-12-10T00:20:20;58.70;;;29.10;;
61696;SDS011;47610;52.252;20.922;2022-12-10T00:25:43;54.40;;;27.90;;
61696;SDS011;47610;52.252;20.922;2022-12-10T00:31:06;51.70;;;25.20;;
61696;SDS011;47610;52.252;20.922;2022-12-10T00:36:31;62.90;;;29.40;;
61696;SDS011;47610;52.252;20.922;2022-12-10T00:41:56;65.60;;;31.10;;
61696;SDS011;47610;52.252;20.922;2022-12-10T00:47:18;59.50;;;29.40;;
61696;SDS011;47610;52.252;20.922;2022-12-10T00:52:40;65.80;;;30.80;;
61696;SDS011;47610;52.252;20.922;2022-12-10T00:58:02;61.70;;;31.70;;
61696;SDS011;47610;52.252;20.922;2022-12-10T01:03:26;64.70;;;30.40;;
61696;SDS011;47610;52.252;20.922;2022-12-10T01:08:49;59.80;;;28.60;;
61696;SDS011;47610;52.252;20.922;2022-12-10T01:14:13;56.90;;;28.00;;
61696;SDS011;47610;52.252;20.922;2022-12-10T01:19:38;63.50;;;30.50;;
61696;SDS011;47610;52.252;20.922;2022-12-10T01:25:01;68.60;;;33.30;;
61696;SDS011;47610;52.252;20.922;2022-12-10T01:30:25;72.10;;;32.90;;
61696;SDS011;47610;52.252;20.922;2022-12-10T01:35:49;58.00;;;28.80;;
61696;SDS011;47610;52.252;20.922;2022-12-10T01:41:14;61.60;;;28.70;;
61696;SDS011;47610;52.252;20.922;2022-12-10T01:46:40;62.40;;;28.40;;
61696;SDS011;47610;52.252;20.922;2022-12-10T01:52:04;58.40;;;28.40;;
61696;SDS011;47610;52.252;20.922;2022-12-10T01:57:29;58.00;;;27.00;;
61696;SDS011;47610;52.252;20.922;2022-12-10T02:10:29;67.20;;;31.60;;
61696;SDS011;47610;52.252;20.922;2022-12-10T02:16:00;58.20;;;28.00;;
61696;SDS011;47610;52.252;20.922;2022-12-10T02:21:28;61.30;;;29.20;;
61696;SDS011;47610;52.252;20.922;2022-12-10T02:26:57;66.00;;;29.90;;
61696;SDS011;47610;52.252;20.922;2022-12-10T02:32:24;59.10;;;26.70;;
61696;SDS011;47610;52.252;20.922;2022-12-10T02:37:50;53.70;;;24.90;;
61696;SDS011;47610;52.252;20.922;2022-12-10T02:43:16;56.00;;;26.10;;
61696;SDS011;47610;52.252;20.922;2022-12-10T02:48:37;56.00;;;25.40;;
61696;SDS011;47610;52.252;20.922;2022-12-10T02:54:02;57.40;;;26.50;;
61696;SDS011;47610;52.252;20.922;2022-12-10T02:59:27;52.50;;;24.30;;
61696;SDS011;47610;52.252;20.922;2022-12-10T03:04:56;47.10;;;22.40;;
61696;SDS011;47610;52.252;20.922;2022-12-10T03:10:24;47.80;;;22.30;;
61696;SDS011;47610;52.252;20.922;2022-12-10T03:15:52;47.50;;;22.70;;
61696;SDS011;47610;52.252;20.922;2022-12-10T03:21:16;51.60;;;22.80;;
61696;SDS011;47610;52.252;20.922;2022-12-10T03:26:38;49.40;;;22.30;;
61696;SDS011;47610;52.252;20.922;2022-12-10T03:32:01;44.90;;;21.50;;
61696;SDS011;47610;52.252;20.922;2022-12-10T03:37:23;46.80;;;21.00;;
61696;SDS011;47610;52.252;20.922;2022-12-10T03:42:45;50.50;;;22.60;;
61696;SDS011;47610;52.252;20.922;2022-12-10T03:48:06;48.50;;;21.70;;
61696;SDS011;47610;52.252;20.922;2022-12-10T04:06:36;52.10;;;24.00;;
61696;SDS011;47610;52.252;20.922;2022-12-10T04:12:01;60.00;;;26.10;;
61696;SDS011;47610;52.252;20.922;2022-12-10T04:17:25;52.50;;;22.30;;
61696;SDS011;47610;52.252;20.922;2022-12-10T04:22:48;59.90;;;24.70;;
61696;SDS011;47610;52.252;20.922;2022-12-10T04:28:10;55.80;;;24.60;;
61696;SDS011;47610;52.252;20.922;2022-12-10T04:33:32;43.30;;;18.60;;
61696;SDS011;47610;52.252;20.922;2022-12-10T04:38:55;58.60;;;23.60;;
61696;SDS011;47610;52.252;20.922;2022-12-10T04:44:19;53.90;;;23.10;;
61696;SDS011;47610;52.252;20.922;2022-12-10T04:49:43;46.60;;;20.00;;
61696;SDS011;47610;52.252;20.922;2022-12-10T04:55:06;55.90;;;23.10;;
61696;SDS011;47610;52.252;20.922;2022-12-10T05:00:30;55.30;;;24.50;;
61696;SDS011;47610;52.252;20.922;2022-12-10T05:05:52;53.50;;;23.70;;
61696;SDS011;47610;52.252;20.922;2022-12-10T05:11:15;56.10;;;21.10;;
61696;SDS011;47610;52.252;20.922;2022-12-10T05:16:40;51.50;;;22.00;;
61696;SDS011;47610;52.252;20.922;2022-12-10T05:22:04;47.40;;;19.20;;
61696;SDS011;47610;52.252;20.922;2022-12-10T05:27:29;45.50;;;19.40;;
61696;SDS011;47610;52.252;20.922;2022-12-10T05:32:55;42.20;;;18.20;;
61696;SDS011;47610;52.252;20.922;2022-12-10T05:38:18;41.50;;;16.80;;
61696;SDS011;47610;52.252;20.922;2022-12-10T05:43:44;48.20;;;21.10;;
61696;SDS011;47610;52.252;20.922;2022-12-10T05:49:08;51.20;;;20.20;;
61696;SDS011;47610;52.252;20.922;2022-12-10T05:54:30;52.30;;;21.10;;
61696;SDS011;47610;52.252;20.922;2022-12-10T05:59:53;49.00;;;19.90;;
61696;SDS011;47610;52.252;20.922;2022-12-10T06:05:15;48.30;;;19.60;;
61696;SDS011;47610;52.252;20.922;2022-12-10T06:10:38;45.70;;;18.10;;
61696;SDS011;47610;52.252;20.922;2022-12-10T06:27:04;51.90;;;22.60;;
61696;SDS011;47610;52.252;20.922;2022-12-10T06:32:26;45.50;;;19.70;;
61696;SDS011;47610;52.252;20.922;2022-12-10T06:37:49;46.20;;;19.30;;
61696;SDS011;47610;52.252;20.922;2022-12-10T06:43:12;45.70;;;17.80;;
61696;SDS011;47610;52.252;20.922;2022-12-10T06:48:34;41.20;;;16.60;;
61696;SDS011;47610;52.252;20.922;2022-12-10T06:53:58;41.60;;;16.00;;
61696;SDS011;47610;52.252;20.922;2022-12-10T06:59:21;36.20;;;15.00;;
61696;SDS011;47610;52.252;20.922;2022-12-10T07:04:47;37.30;;;15.50;;
61696;SDS011;47610;52.252;20.922;2022-12-10T07:10:12;45.60;;;18.20;;
61696;SDS011;47610;52.252;20.922;2022-12-10T07:15:34;38.50;;;15.60;;
61696;SDS011;47610;52.252;20.922;2022-12-10T07:20:56;42.50;;;17.00;;
61696;SDS011;47610;52.252;20.922;2022-12-10T07:26:18;42.00;;;17.20;;
61696;SDS011;47610;52.252;20.922;2022-12-10T07:31:42;39.90;;;15.40;;
61696;SDS011;47610;52.252;20.922;2022-12-10T07:37:06;42.40;;;16.40;;
61696;SDS011;47610;52.252;20.922;2022-12-10T07:42:30;45.50;;;16.40;;
61696;SDS011;47610;52.252;20.922;2022-12-10T07:47:54;38.70;;;15.80;;
61696;SDS011;47610;52.252;20.922;2022-12-10T07:53:17;36.40;;;16.20;;
61696;SDS011;47610;52.252;20.922;2022-12-10T07:58:42;42.10;;;16.30;;
61696;SDS011;47610;52.252;20.922;2022-12-10T08:04:06;33.70;;;13.00;;
61696;SDS011;47610;52.252;20.922;2022-12-10T08:09:29;40.40;;;16.90;;
61696;SDS011;47610;52.252;20.922;2022-12-10T08:14:54;41.20;;;17.20;;
61696;SDS011;47610;52.252;20.922;2022-12-10T08:20:17;37.40;;;14.80;;
61696;SDS011;47610;52.252;20.922;2022-12-10T08:25:42;34.00;;;13.80;;
61696;SDS011;47610;52.252;20.922;2022-12-10T08:31:11;33.40;;;14.70;;
61696;SDS011;47610;52.252;20.922;2022-12-10T08:47:04;28.60;;;11.80;;
61696;SDS011;47610;52.252;20.922;2022-12-10T08:52:26;32.50;;;13.10;;
61696;SDS011;47610;52.252;20.922;2022-12-10T08:57:47;33.60;;;14.50;;
61696;SDS011;47610;52.252;20.922;2022-12-10T09:03:09;28.30;;;13.10;;
61696;SDS011;47610;52.252;20.922;2022-12-10T09:08:30;26.20;;;10.80;;
61696;SDS011;47610;52.252;20.922;2022-12-10T09:13:51;27.10;;;11.70;;
61696;SDS011;47610;52.252;20.922;2022-12-10T09:19:13;24.60;;;10.50;;
61696;SDS011;47610;52.252;20.922;2022-12-10T09:24:34;29.40;;;12.90;;
61696;SDS011;47610;52.252;20.922;2022-12-10T09:29:56;29.60;;;12.80;;
61696;SDS011;47610;52.252;20.922;2022-12-10T09:35:17;29.70;;;12.30;;
61696;SDS011;47610;52.252;20.922;2022-12-10T09:40:41;57.10;;;26.70;;
61696;SDS011;47610;52.252;20.922;2022-12-10T09:46:10;38.30;;;14.70;;
61696;SDS011;47610;52.252;20.922;2022-12-10T09:51:36;39.00;;;14.40;;
61696;SDS011;47610;52.252;20.922;2022-12-10T09:56:57;33.90;;;12.80;;
61696;SDS011;47610;52.252;20.922;2022-12-10T10:02:22;31.40;;;12.50;;
61696;SDS011;47610;52.252;20.922;2022-12-10T10:07:44;34.70;;;14.00;;
61696;SDS011;47610;52.252;20.922;2022-12-10T10:13:14;32.30;;;12.50;;
61696;SDS011;47610;52.252;20.922;2022-12-10T10:18:48;31.80;;;13.20;;
61696;SDS011;47610;52.252;20.922;2022-12-10T10:24:16;30.50;;;12.10;;
61696;SDS011;47610;52.252;20.922;2022-12-10T10:29:40;27.70;;;11.40;;
61696;SDS011;47610;52.252;20.922;2022-12-10T10:35:02;28.90;;;11.40;;
61696;SDS011;47610;52.252;20.922;2022-12-10T10:40:25;32.10;;;12.70;;
61696;SDS011;47610;52.252;20.922;2022-12-10T10:45:49;31.80;;;14.70;;
61696;SDS011;47610;52.252;20.922;2022-12-10T10:56:40;37.00;;;14.90;;
61696;SDS011;47610;52.252;20.922;2022-12-10T11:12:37;30.60;;;13.80;;
61696;SDS011;47610;52.252;20.922;2022-12-10T11:18:03;34.10;;;14.50;;
61696;SDS011;47610;52.252;20.922;2022-12-10T11:23:46;36.80;;;15.80;;
61696;SDS011;47610;52.252;20.922;2022-12-10T11:29:17;40.50;;;15.60;;
61696;SDS011;47610;52.252;20.922;2022-12-10T11:34:48;33.80;;;14.50;;
61696;SDS011;47610;52.252;20.922;2022-12-10T11:46:11;37.90;;;14.20;;
61696;SDS011;47610;52.252;20.922;2022-12-10T11:51:45;38.30;;;14.50;;
61696;SDS011;47610;52.252;20.922;2022-12-10T11:57:16;35.50;;;14.80;;
61696;SDS011;47610;52.252;20.922;2022-12-10T12:03:03;35.50;;;14.90;;
61696;SDS011;47610;52.252;20.922;2022-12-10T12:08:36;41.00;;;14.10;;
61696;SDS011;47610;52.252;20.922;2022-12-10T12:14:11;35.20;;;12.90;;
61696;SDS011;47610;52.252;20.922;2022-12-10T12:19:44;34.90;;;13.40;;
61696;SDS011;47610;52.252;20.922;2022-12-10T12:25:15;37.10;;;14.40;;
61696;SDS011;47610;52.252;20.922;2022-12-10T12:30:42;35.20;;;13.00;;
61696;SDS011;47610;52.252;20.922;2022-12-10T12:36:09;34.20;;;13.60;;
61696;SDS011;47610;52.252;20.922;2022-12-10T12:41:36;34.40;;;12.80;;
61696;SDS011;47610;52.252;20.922;2022-12-10T12:52:50;31.60;;;14.30;;
61696;SDS011;47610;52.252;20.922;2022-12-10T12:58:17;27.70;;;11.10;;
61696;SDS011;47610;52.252;20.922;2022-12-10T13:03:47;33.20;;;12.50;;
61696;SDS011;47610;52.252;20.922;2022-12-10T13:09:23;44.20;;;19.10;;
61696;SDS011;47610;52.252;20.922;2022-12-10T13:15:00;38.80;;;14.90;;
61696;SDS011;47610;52.252;20.922;2022-12-10T13:20:40;18.40;;;6.10;;
61696;SDS011;47610;52.252;20.922;2022-12-10T13:40:39;32.30;;;14.30;;
61696;SDS011;47610;52.252;20.922;2022-12-10T13:51:45;31.90;;;14.00;;
61696;SDS011;47610;52.252;20.922;2022-12-10T13:57:30;30.50;;;13.90;;
61696;SDS011;47610;52.252;20.922;2022-12-10T14:03:19;29.70;;;11.80;;
61696;SDS011;47610;52.252;20.922;2022-12-10T14:09:03;26.60;;;12.80;;
61696;SDS011;47610;52.252;20.922;2022-12-10T14:14:32;44.10;;;20.30;;
61696;SDS011;47610;52.252;20.922;2022-12-10T14:19:54;29.60;;;14.50;;
61696;SDS011;47610;52.252;20.922;2022-12-10T14:25:16;30.20;;;14.50;;
61696;SDS011;47610;52.252;20.922;2022-12-10T14:30:41;29.30;;;14.30;;
61696;SDS011;47610;52.252;20.922;2022-12-10T14:36:03;26.30;;;12.80;;
61696;SDS011;47610;52.252;20.922;2022-12-10T14:41:24;34.20;;;15.20;;
61696;SDS011;47610;52.252;20.922;2022-12-10T14:52:11;31.60;;;14.90;;
61696;SDS011;47610;52.252;20.922;2022-12-10T14:57:34;32.20;;;15.80;;
61696;SDS011;47610;52.252;20.922;2022-12-10T15:03:01;31.10;;;14.20;;
61696;SDS011;47610;52.252;20.922;2022-12-10T15:08:28;29.80;;;14.70;;
61696;SDS011;47610;52.252;20.922;2022-12-10T15:13:51;29.00;;;14.10;;
61696;SDS011;47610;52.252;20.922;2022-12-10T15:19:18;28.80;;;13.90;;
61696;SDS011;47610;52.252;20.922;2022-12-10T15:37:33;27.10;;;14.00;;
61696;SDS011;47610;52.252;20.922;2022-12-10T15:43:20;26.50;;;13.30;;
61696;SDS011;47610;52.252;20.922;2022-12-10T15:48:46;29.50;;;14.20;;
61696;SDS011;47610;52.252;20.922;2022-12-10T15:54:14;34.90;;;16.70;;
61696;SDS011;47610;52.252;20.922;2022-12-10T15:59:42;81.20;;;37.30;;
61696;SDS011;47610;52.252;20.922;2022-12-10T16:05:10;49.30;;;23.90;;
61696;SDS011;47610;52.252;20.922;2022-12-10T16:10:33;33.70;;;16.30;;
61696;SDS011;47610;52.252;20.922;2022-12-10T16:15:56;30.30;;;15.10;;
61696;SDS011;47610;52.252;20.922;2022-12-10T16:21:23;29.30;;;15.00;;
61696;SDS011;47610;52.252;20.922;2022-12-10T16:26:45;24.10;;;13.60;;
61696;SDS011;47610;52.252;20.922;2022-12-10T16:32:09;28.30;;;14.70;;
61696;SDS011;47610;52.252;20.922;2022-12-10T16:37:32;28.00;;;15.00;;
61696;SDS011;47610;52.252;20.922;2022-12-10T16:42:54;27.60;;;15.00;;
61696;SDS011;47610;52.252;20.922;2022-12-10T16:48:18;22.00;;;13.00;;
61696;SDS011;47610;52.252;20.922;2022-12-10T16:53:41;26.40;;;14.40;;
61696;SDS011;47610;52.252;20.922;2022-12-10T16:59:03;25.90;;;12.90;;
61696;SDS011;47610;52.252;20.922;2022-12-10T17:04:26;28.30;;;15.60;;
61696;SDS011;47610;52.252;20.922;2022-12-10T17:09:47;26.10;;;13.80;;
61696;SDS011;47610;52.252;20.922;2022-12-10T17:15:11;26.00;;;14.00;;
61696;SDS011;47610;52.252;20.922;2022-12-10T17:20:34;23.40;;;13.00;;
61696;SDS011;47610;52.252;20.922;2022-12-10T17:25:56;28.40;;;15.00;;
61696;SDS011;47610;52.252;20.922;2022-12-10T17:31:19;27.80;;;14.40;;
61696;SDS011;47610;52.252;20.922;2022-12-10T17:36:41;27.20;;;13.70;;
61696;SDS011;47610;52.252;20.922;2022-12-10T17:42:04;25.70;;;14.40;;
61696;SDS011;47610;52.252;20.922;2022-12-10T18:01:29;26.70;;;14.70;;
61696;SDS011;47610;52.252;20.922;2022-12-10T18:06:51;31.90;;;16.50;;
61696;SDS011;47610;52.252;20.922;2022-12-10T18:12:13;26.50;;;13.80;;
61696;SDS011;47610;52.252;20.922;2022-12-10T18:17:35;26.40;;;15.00;;
61696;SDS011;47610;52.252;20.922;2022-12-10T18:22:58;31.00;;;16.40;;
61696;SDS011;47610;52.252;20.922;2022-12-10T18:34:07;28.60;;;14.40;;
61696;SDS011;47610;52.252;20.922;2022-12-10T18:39:30;31.50;;;15.70;;
61696;SDS011;47610;52.252;20.922;2022-12-10T18:44:52;26.80;;;13.30;;
61696;SDS011;47610;52.252;20.922;2022-12-10T18:50:18;30.00;;;16.30;;
61696;SDS011;47610;52.252;20.922;2022-12-10T18:55:41;113.80;;;48.20;;
61696;SDS011;47610;52.252;20.922;2022-12-10T19:01:03;52.40;;;23.30;;
61696;SDS011;47610;52.252;20.922;2022-12-10T19:06:27;35.40;;;16.80;;
61696;SDS011;47610;52.252;20.922;2022-12-10T19:11:51;33.70;;;16.50;;
61696;SDS011;47610;52.252;20.922;2022-12-10T19:17:13;26.90;;;13.80;;
61696;SDS011;47610;52.252;20.922;2022-12-10T19:22:35;32.50;;;15.10;;
61696;SDS011;47610;52.252;20.922;2022-12-10T19:27:58;32.60;;;14.90;;
61696;SDS011;47610;52.252;20.922;2022-12-10T19:33:21;28.70;;;14.70;;
61696;SDS011;47610;52.252;20.922;2022-12-10T19:38:44;29.00;;;14.70;;
61696;SDS011;47610;52.252;20.922;2022-12-10T19:44:07;31.10;;;15.90;;
61696;SDS011;47610;52.252;20.922;2022-12-10T19:49:30;32.20;;;16.10;;
61696;SDS011;47610;52.252;20.922;2022-12-10T19:54:53;32.40;;;16.00;;
61696;SDS011;47610;52.252;20.922;2022-12-10T20:00:16;29.80;;;14.50;;
61696;SDS011;47610;52.252;20.922;2022-12-10T20:05:48;23.50;;;8.90;;
61696;SDS011;47610;52.252;20.922;2022-12-10T20:17:39;33.00;;;16.20;;
61696;SDS011;47610;52.252;20.922;2022-12-10T20:23:02;46.10;;;20.90;;
61696;SDS011;47610;52.252;20.922;2022-12-10T20:28:25;83.70;;;36.00;;
61696;SDS011;47610;52.252;20.922;2022-12-10T20:33:48;44.30;;;21.30;;
61696;SDS011;47610;52.252;20.922;2022-12-10T20:39:12;42.80;;;18.70;;
61696;SDS011;47610;52.252;20.922;2022-12-10T20:44:39;39.30;;;18.80;;
61696;SDS011;47610;52.252;20.922;2022-12-10T20:50:03;41.60;;;16.90;;
61696;SDS011;47610;52.252;20.922;2022-12-10T20:55:26;34.00;;;16.00;;
61696;SDS011;47610;52.252;20.922;2022-12-10T21:00:48;35.80;;;15.30;;
61696;SDS011;47610;52.252;20.922;2022-12-10T21:06:12;33.10;;;15.40;;
61696;SDS011;47610;52.252;20.922;2022-12-10T21:11:36;36.60;;;15.10;;
61696;SDS011;47610;52.252;20.922;2022-12-10T21:16:58;36.90;;;16.50;;
61696;SDS011;47610;52.252;20.922;2022-12-10T21:22:21;38.60;;;15.40;;
61696;SDS011;47610;52.252;20.922;2022-12-10T21:27:43;40.20;;;17.90;;
61696;SDS011;47610;52.252;20.922;2022-12-10T21:33:06;36.60;;;15.60;;
61696;SDS011;47610;52.252;20.922;2022-12-10T21:38:28;41.30;;;18.40;;
61696;SDS011;47610;52.252;20.922;2022-12-10T21:43:50;39.80;;;16.20;;
61696;SDS011;47610;52.252;20.922;2022-12-10T21:49:12;41.10;;;17.20;;
61696;SDS011;47610;52.252;20.922;2022-12-10T21:54:40;40.10;;;15.90;;
61696;SDS011;47610;52.252;20.922;2022-12-10T22:00:02;40.70;;;17.30;;
61696;SDS011;47610;52.252;20.922;2022-12-10T22:05:25;43.80;;;18.60;;
61696;SDS011;47610;52.252;20.922;2022-12-10T22:10:48;41.90;;;16.50;;
61696;SDS011;47610;52.252;20.922;2022-12-10T22:16:12;41.00;;;17.20;;
61696;SDS011;47610;52.252;20.922;2022-12-10T22:21:34;30.00;;;12.30;;
61696;SDS011;47610;52.252;20.922;2022-12-10T22:37:00;76.00;;;35.90;;
61696;SDS011;47610;52.252;20.922;2022-12-10T22:42:22;103.10;;;41.90;;
61696;SDS011;47610;52.252;20.922;2022-12-10T22:47:44;63.30;;;25.30;;
61696;SDS011;47610;52.252;20.922;2022-12-10T22:53:06;42.80;;;18.70;;
61696;SDS011;47610;52.252;20.922;2022-12-10T22:58:28;38.40;;;16.40;;
61696;SDS011;47610;52.252;20.922;2022-12-10T23:03:52;39.50;;;17.70;;
61696;SDS011;47610;52.252;20.922;2022-12-10T23:09:16;42.70;;;16.60;;
61696;SDS011;47610;52.252;20.922;2022-12-10T23:14:39;34.90;;;16.40;;
61696;SDS011;47610;52.252;20.922;2022-12-10T23:20:01;38.30;;;16.60;;
61696;SDS011;47610;52.252;20.922;2022-12-10T23:25:24;34.90;;;15.10;;
61696;SDS011;47610;52.252;20.922;2022-12-10T23:30:52;37.10;;;17.00;;
61696;SDS011;47610;52.252;20.922;2022-12-10T23:36:15;39.40;;;17.10;;
61696;SDS011;47610;52.252;20.922;2022-12-10T23:41:38;31.40;;;14.20;;
61696;SDS011;47610;52.252;20.922;2022-12-10T23:47:00;36.20;;;14.90;;
61696;SDS011;47610;52.252;20.922;2022-12-10T23:52:22;142.90;;;65.00;;
61696;SDS011;47610;52.252;20.922;2022-12-10T23:57:46;101.20;;;38.70;;
